createdAt,value
2023-04-04T06:59:24.248Z,1.73
2023-04-04T07:01:21.891Z,1.81
2023-04-04T07:02:23.448Z,2.29
2023-04-04T07:03:25.695Z,2.25
2023-04-04T07:04:27.267Z,2.64
2023-04-04T07:05:29.158Z,2.70
2023-04-04T07:06:31.141Z,2.22
2023-04-04T07:07:32.546Z,2.16
2023-04-04T07:08:36.822Z,2.58
2023-04-04T07:09:38.590Z,2.62
2023-04-04T07:10:41.271Z,1.52
2023-04-04T07:11:42.847Z,1.90
2023-04-04T07:12:44.275Z,2.66
2023-04-04T07:13:45.752Z,2.91
2023-04-04T07:14:47.112Z,3.34
2023-04-04T07:15:51.383Z,2.73
2023-04-04T07:16:53.249Z,3.38
2023-04-04T07:17:54.951Z,3.70
2023-04-04T07:18:56.892Z,3.62
2023-04-04T07:19:58.319Z,3.98
2023-04-04T07:20:59.784Z,4.18
2023-04-04T07:22:01.157Z,4.43
2023-04-04T07:23:02.536Z,4.76
2023-04-04T07:24:04.249Z,3.99
2023-04-04T07:25:06.667Z,3.81
2023-04-04T07:26:08.167Z,4.29
2023-04-04T07:27:09.618Z,4.65
2023-04-04T07:28:13.207Z,4.78
2023-04-04T07:29:15.084Z,5.20
2023-04-04T07:30:16.645Z,4.98
2023-04-04T07:31:18.408Z,4.72
2023-04-04T07:32:19.771Z,4.89
2023-04-04T07:33:21.211Z,4.80
2023-04-04T07:34:22.620Z,4.55
2023-04-04T07:35:24.293Z,4.71
2023-04-04T07:36:25.627Z,4.01
2023-04-04T07:37:27.148Z,4.36
2023-04-04T07:38:28.804Z,4.78
2023-04-04T07:39:30.178Z,5.18
2023-04-04T07:40:32.002Z,5.58
2023-04-04T07:41:33.665Z,5.69
2023-04-04T07:42:35.933Z,5.84
2023-04-04T07:43:38.317Z,5.76
2023-04-04T07:44:39.891Z,5.31
2023-04-04T07:45:41.390Z,5.68
2023-04-04T07:46:42.861Z,5.82
2023-04-04T07:47:45.168Z,5.24
2023-04-04T07:48:46.561Z,5.92
2023-04-04T07:49:48.011Z,6.46
2023-04-04T07:50:49.473Z,6.16
2023-04-04T07:51:50.870Z,6.03
2023-04-04T07:52:54.241Z,6.28
2023-04-04T07:53:56.353Z,6.50
2023-04-04T07:54:57.754Z,6.90
2023-04-04T07:55:59.207Z,7.46
2023-04-04T07:57:00.979Z,7.08
2023-04-04T07:58:02.854Z,6.48
2023-04-04T07:59:04.279Z,4.98
2023-04-04T08:00:09.983Z,5.12
2023-04-04T08:01:11.996Z,5.54
2023-04-04T08:02:13.416Z,5.97
2023-04-04T08:03:15.020Z,6.98
2023-04-04T08:04:16.689Z,7.23
2023-04-04T08:05:18.068Z,7.07
2023-04-04T08:06:19.777Z,7.21
2023-04-04T08:07:21.188Z,6.47
2023-04-04T08:08:22.677Z,6.61
2023-04-04T08:09:24.983Z,6.95
2023-04-04T08:10:27.039Z,6.89
2023-04-04T08:11:28.509Z,7.34
2023-04-04T08:12:29.906Z,7.59
2023-04-04T08:13:31.522Z,7.61
2023-04-04T08:14:33.092Z,8.18
2023-04-04T08:15:34.460Z,7.49
2023-04-04T08:16:35.797Z,8.14
2023-04-04T08:17:37.781Z,7.28
2023-04-04T08:18:39.609Z,5.14
2023-04-04T08:19:41.245Z,4.31
2023-04-04T08:20:43.389Z,4.44
2023-04-04T08:21:45.467Z,5.68
2023-04-04T08:22:46.988Z,6.09
2023-04-04T08:23:48.433Z,6.83
2023-04-04T08:24:49.794Z,7.54
2023-04-04T08:25:51.630Z,7.58
2023-04-04T08:27:04.585Z,7.91
2023-04-04T08:28:06.973Z,6.28
2023-04-04T08:29:08.889Z,6.05
2023-04-04T08:30:10.953Z,6.90
2023-04-04T08:31:13.181Z,7.17
2023-04-04T08:32:15.078Z,7.57
2023-04-04T08:33:17.313Z,7.97
2023-04-04T08:34:20.674Z,8.21
2023-04-04T08:35:22.111Z,7.33
2023-04-04T08:36:23.538Z,7.31
2023-04-04T08:37:24.983Z,7.47
2023-04-04T08:38:26.499Z,7.38
2023-04-04T08:39:28.170Z,6.42
2023-04-04T08:40:32.712Z,7.32
2023-04-04T08:41:38.962Z,7.95
2023-04-04T08:42:44.290Z,7.69
2023-04-04T08:43:49.041Z,7.49
2023-04-04T08:44:53.982Z,5.87
2023-04-04T08:45:56.249Z,5.02
2023-04-04T08:47:02.722Z,4.13
2023-04-04T08:48:06.639Z,4.52
2023-04-04T08:49:09.745Z,4.68
2023-04-04T08:50:13.643Z,4.26
2023-04-04T08:51:17.962Z,4.03
2023-04-04T08:52:33.227Z,4.81
2023-04-04T08:53:37.255Z,3.58
2023-04-04T08:54:40.527Z,3.66
2023-04-04T08:55:44.440Z,3.54
2023-04-04T08:56:46.859Z,2.91
2023-04-04T08:57:49.165Z,2.92
2023-04-04T08:58:50.554Z,2.11
2023-04-04T08:59:52.195Z,2.29
2023-04-04T09:00:54.685Z,2.92
2023-04-04T09:02:14.325Z,3.69
2023-04-04T09:03:24.284Z,4.72
2023-04-04T09:04:27.426Z,4.47
2023-04-04T09:05:29.552Z,5.44
2023-04-04T09:06:34.673Z,5.40
2023-04-04T09:07:39.252Z,5.56
2023-04-04T09:08:42.361Z,5.09
2023-04-04T09:09:47.763Z,3.65
2023-04-04T09:10:49.347Z,4.19
2023-04-04T09:12:57.303Z,3.81
2023-04-04T09:14:04.727Z,3.27
2023-04-04T09:15:06.603Z,4.83
2023-04-04T09:16:08.353Z,5.52
2023-04-04T09:17:11.035Z,4.83
2023-04-04T09:18:12.532Z,6.02
2023-04-04T09:19:13.964Z,6.80
2023-04-04T09:20:33.707Z,7.38
2023-04-04T09:21:35.317Z,6.63
2023-04-04T09:22:44.599Z,4.95
2023-04-04T09:23:46.031Z,2.94
2023-04-04T09:24:48.418Z,3.81
2023-04-04T09:26:03.191Z,4.39
2023-04-04T09:27:07.003Z,5.50
2023-04-04T09:28:08.396Z,4.54
2023-04-04T09:29:10.081Z,3.27
2023-04-04T09:30:11.738Z,3.29
2023-04-04T09:31:14.830Z,3.58
2023-04-04T09:32:17.228Z,4.39
2023-04-04T09:33:24.601Z,3.28
2023-04-04T09:34:28.572Z,3.88
2023-04-04T09:35:33.109Z,5.13
2023-04-04T09:36:35.117Z,5.72
2023-04-04T09:37:37.001Z,5.42
2023-04-04T09:38:45.608Z,5.13
2023-04-04T09:39:48.162Z,5.93
2023-04-04T09:40:49.825Z,6.87
2023-04-04T09:41:51.437Z,7.31
2023-04-04T09:42:54.722Z,7.65
2023-04-04T09:43:57.856Z,7.88
2023-04-04T09:44:59.573Z,8.65
2023-04-04T09:46:01.288Z,6.82
2023-04-04T09:47:30.955Z,5.62
2023-04-04T09:48:35.117Z,4.54
2023-04-04T09:49:36.542Z,3.96
2023-04-04T09:50:46.054Z,4.87
2023-04-04T09:51:54.973Z,4.82
2023-04-04T09:53:00.575Z,6.34
2023-04-04T09:54:02.419Z,7.17
2023-04-04T09:55:05.292Z,8.03
2023-04-04T09:56:07.115Z,8.31
2023-04-04T09:57:08.948Z,6.81
2023-04-04T09:58:15.658Z,8.40
2023-04-04T09:59:18.600Z,8.93
2023-04-04T10:00:21.004Z,8.49
2023-04-04T10:01:24.126Z,8.78
2023-04-04T10:02:26.129Z,8.65
2023-04-04T10:03:28.777Z,9.44
2023-04-04T10:04:32.259Z,9.74
2023-04-04T10:05:33.856Z,10.38
2023-04-04T10:06:37.466Z,10.54
2023-04-04T10:07:40.440Z,10.41
2023-04-04T10:08:43.090Z,10.05
2023-04-04T10:09:47.572Z,8.70
2023-04-04T10:11:06.520Z,8.70
2023-04-04T10:12:11.552Z,9.34
2023-04-04T10:13:13.338Z,9.27
2023-04-04T10:14:15.592Z,9.72
2023-04-04T10:15:17.315Z,8.54
2023-04-04T10:16:18.978Z,10.24
2023-04-04T10:17:21.223Z,10.52
2023-04-04T10:18:27.375Z,10.59
2023-04-04T10:19:29.182Z,11.13
2023-04-04T10:20:31.911Z,11.60
2023-04-04T10:21:34.548Z,11.67
2023-04-04T10:22:38.007Z,11.79
2023-04-04T10:23:41.291Z,12.28
2023-04-04T10:24:42.716Z,11.25
2023-04-04T10:25:44.631Z,11.79
2023-04-04T10:26:46.258Z,8.59
2023-04-04T10:27:49.578Z,9.38
2023-04-04T10:28:52.209Z,8.67
2023-04-04T10:29:53.813Z,9.36
2023-04-04T10:31:06.337Z,9.54
2023-04-04T10:32:16.343Z,11.08
2023-04-04T10:33:28.281Z,10.12
2023-04-04T10:34:42.098Z,10.42
2023-04-04T10:35:47.795Z,11.76
2023-04-04T10:36:51.500Z,12.43
2023-04-04T10:37:58.382Z,13.27
2023-04-04T10:39:23.779Z,12.08
2023-04-04T10:40:34.614Z,11.10
2023-04-04T10:41:36.460Z,12.00
2023-04-04T10:42:47.668Z,12.95
2023-04-04T10:43:52.217Z,12.37
2023-04-04T10:44:54.112Z,9.69
2023-04-04T10:46:01.744Z,11.38
2023-04-04T10:47:22.251Z,11.79
2023-04-04T10:48:26.039Z,13.27
2023-04-04T10:49:28.039Z,13.29
2023-04-04T10:50:31.776Z,10.98
2023-04-04T10:51:39.440Z,10.99
2023-04-04T10:52:47.494Z,12.38
2023-04-04T10:53:49.953Z,13.33
2023-04-04T10:54:57.439Z,12.96
2023-04-04T10:56:01.658Z,13.07
2023-04-04T10:57:04.097Z,13.05
2023-04-04T10:58:06.342Z,13.59
2023-04-04T10:59:15.968Z,14.02
2023-04-04T11:00:19.347Z,14.56
2023-04-04T11:01:22.262Z,14.77
2023-04-04T11:02:43.832Z,14.79
2023-04-04T11:04:21.511Z,14.66
2023-04-04T11:05:51.495Z,11.07
2023-04-04T11:07:09.369Z,11.98
2023-04-04T11:08:14.028Z,10.27
2023-04-04T11:09:15.701Z,10.10
2023-04-04T11:10:23.685Z,11.99
2023-04-04T11:11:26.984Z,11.38
2023-04-04T11:12:34.280Z,12.89
2023-04-04T11:13:35.837Z,14.04
2023-04-04T11:14:37.505Z,14.48
2023-04-04T11:15:59.833Z,14.58
2023-04-04T11:17:10.598Z,14.23
2023-04-04T11:18:27.087Z,14.39
2023-04-04T11:19:33.361Z,15.27
2023-04-04T11:20:36.633Z,15.49
2023-04-04T11:21:39.276Z,12.09
2023-04-04T11:22:42.585Z,12.31
2023-04-04T11:23:49.986Z,11.79
2023-04-04T11:25:00.133Z,12.17
2023-04-04T11:26:03.478Z,12.20
2023-04-04T11:27:06.944Z,11.65
2023-04-04T11:28:14.771Z,9.74
2023-04-04T11:29:53.389Z,12.08
2023-04-04T11:31:20.540Z,13.69
2023-04-04T11:32:50.227Z,13.80
2023-04-04T11:34:13.626Z,14.20
2023-04-04T11:35:15.699Z,14.19
2023-04-04T11:36:50.849Z,14.42
2023-04-04T11:37:55.003Z,14.63
2023-04-04T11:38:58.353Z,14.85
2023-04-04T11:40:09.299Z,14.54
2023-04-04T11:41:11.796Z,14.52
2023-04-04T11:42:14.383Z,14.96
2023-04-04T11:43:17.012Z,14.51
2023-04-04T11:44:19.565Z,15.09
2023-04-04T11:45:21.294Z,14.68
2023-04-04T11:46:23.914Z,14.98
2023-04-04T11:47:25.728Z,15.48
2023-04-04T11:48:27.153Z,15.62
2023-04-04T11:49:30.268Z,14.78
2023-04-04T11:50:36.728Z,14.92
2023-04-04T11:51:41.807Z,14.99
2023-04-04T11:52:43.141Z,15.70
2023-04-04T11:53:48.004Z,15.50
2023-04-04T11:54:50.249Z,11.19
2023-04-04T11:55:53.134Z,11.30
2023-04-04T11:56:54.657Z,12.89
2023-04-04T11:57:58.169Z,13.79
2023-04-04T11:59:10.779Z,13.92
2023-04-04T12:00:27.566Z,13.96
2023-04-04T12:01:29.239Z,11.43
2023-04-04T12:02:34.591Z,11.37
2023-04-04T12:03:36.267Z,9.59
2023-04-04T12:04:41.143Z,8.85
2023-04-04T12:05:44.878Z,8.48
2023-04-04T12:06:54.202Z,10.55
2023-04-04T12:07:55.706Z,11.27
2023-04-04T12:08:57.593Z,12.15
2023-04-04T12:09:59.279Z,13.03
2023-04-04T12:11:06.466Z,13.27
2023-04-04T12:12:12.567Z,13.65
2023-04-04T12:13:15.026Z,14.24
2023-04-04T12:14:22.103Z,14.34
2023-04-04T12:15:23.499Z,14.93
2023-04-04T12:16:24.957Z,14.48
2023-04-04T12:17:29.940Z,14.50
2023-04-04T12:18:31.907Z,14.86
2023-04-04T12:19:38.394Z,14.44
2023-04-04T12:20:41.381Z,14.67
2023-04-04T12:21:42.850Z,14.30
2023-04-04T12:22:48.414Z,15.07
2023-04-04T12:23:49.904Z,15.05
2023-04-04T12:24:51.482Z,15.46
2023-04-04T12:25:55.674Z,14.91
2023-04-04T12:26:58.501Z,12.43
2023-04-04T12:28:02.426Z,13.34
2023-04-04T12:29:05.674Z,14.55
2023-04-04T12:30:15.358Z,14.69
2023-04-04T12:31:17.316Z,14.83
2023-04-04T12:32:19.029Z,14.98
2023-04-04T12:33:21.209Z,15.11
2023-04-04T12:34:24.505Z,15.25
2023-04-04T12:35:26.110Z,15.39
2023-04-04T12:36:29.816Z,14.99
2023-04-04T12:37:31.268Z,15.52
2023-04-04T12:38:32.977Z,14.81
2023-04-04T12:39:34.372Z,14.41
2023-04-04T12:40:37.916Z,14.77
2023-04-04T12:41:53.184Z,14.91
2023-04-04T12:42:55.565Z,14.42
2023-04-04T12:44:02.399Z,11.79
2023-04-04T12:45:05.215Z,11.80
2023-04-04T12:46:08.435Z,12.84
2023-04-04T12:47:11.366Z,13.70
2023-04-04T12:48:14.967Z,14.09
2023-04-04T12:49:22.076Z,14.29
2023-04-04T12:50:26.453Z,14.11
2023-04-04T12:51:32.815Z,14.26
2023-04-04T12:52:39.787Z,14.34
2023-04-04T12:53:59.757Z,13.80
2023-04-04T12:55:09.420Z,13.99
2023-04-04T12:56:11.170Z,14.16
2023-04-04T12:57:18.600Z,15.07
2023-04-04T12:58:22.698Z,15.21
2023-04-04T12:59:28.697Z,15.21
2023-04-04T13:00:30.668Z,15.08
2023-04-04T13:01:33.093Z,14.53
2023-04-04T13:02:36.117Z,14.50
2023-04-04T13:03:38.690Z,14.23
2023-04-04T13:04:40.679Z,14.57
2023-04-04T13:05:47.199Z,14.84
2023-04-04T13:06:48.896Z,14.35
2023-04-04T13:07:50.376Z,14.85
2023-04-04T13:08:53.644Z,14.75
2023-04-04T13:10:00.356Z,15.06
2023-04-04T13:11:05.135Z,13.51
2023-04-04T13:12:08.613Z,13.31
2023-04-04T13:13:09.996Z,12.46
2023-04-04T13:14:13.340Z,13.80
2023-04-04T13:15:16.522Z,13.07
2023-04-04T13:16:38.032Z,14.25
2023-04-04T13:17:50.257Z,14.79
2023-04-04T13:18:51.686Z,15.01
2023-04-04T13:19:53.146Z,14.17
2023-04-04T13:20:55.038Z,13.74
2023-04-04T13:21:56.557Z,14.48
2023-04-04T13:22:58.786Z,14.69
2023-04-04T13:24:02.785Z,14.87
2023-04-04T13:25:05.952Z,15.27
2023-04-04T13:26:09.654Z,15.49
2023-04-04T13:27:11.110Z,15.64
2023-04-04T13:28:13.063Z,15.31
2023-04-04T13:29:14.472Z,15.30
2023-04-04T13:30:16.123Z,15.38
2023-04-04T13:31:17.875Z,15.60
2023-04-04T13:32:19.587Z,13.77
2023-04-04T13:33:22.270Z,13.41
2023-04-04T13:34:27.329Z,12.50
2023-04-04T13:35:28.772Z,13.89
2023-04-04T13:36:31.292Z,14.39
2023-04-04T13:37:32.791Z,14.39
2023-04-04T13:38:34.686Z,14.65
2023-04-04T13:39:36.350Z,14.85
2023-04-04T13:40:37.760Z,14.65
2023-04-04T13:41:39.124Z,14.84
2023-04-04T13:42:40.549Z,15.41
2023-04-04T13:43:41.907Z,15.12
2023-04-04T13:44:43.245Z,14.79
2023-04-04T13:45:45.156Z,15.03
2023-04-04T13:46:46.582Z,14.57
2023-04-04T13:47:48.174Z,14.73
2023-04-04T13:48:49.703Z,14.32
2023-04-04T13:49:51.172Z,14.55
2023-04-04T13:50:54.115Z,14.91
2023-04-04T13:51:55.663Z,14.69
2023-04-04T13:52:57.042Z,12.38
2023-04-04T13:53:58.488Z,12.88
2023-04-04T13:54:59.837Z,13.80
2023-04-04T13:56:17.953Z,14.02
2023-04-04T13:57:20.262Z,14.01
2023-04-04T13:58:21.654Z,14.85
2023-04-04T13:59:23.161Z,15.28
2023-04-04T14:00:25.594Z,15.31
2023-04-04T14:01:27.416Z,15.86
2023-04-04T14:02:28.914Z,15.56
2023-04-04T14:03:30.640Z,15.66
2023-04-04T14:04:32.055Z,13.47
2023-04-04T14:05:33.719Z,10.47
2023-04-04T14:06:35.902Z,9.68
2023-04-04T14:07:38.271Z,10.63
2023-04-04T14:08:39.909Z,11.35
2023-04-04T14:09:41.628Z,12.08
2023-04-04T14:10:43.082Z,13.23
2023-04-04T14:11:46.386Z,13.50
2023-04-04T14:12:47.862Z,13.65
2023-04-04T14:13:51.834Z,12.54
2023-04-04T14:14:53.275Z,12.31
2023-04-04T14:15:54.858Z,13.84
2023-04-04T14:16:56.394Z,12.33
2023-04-04T14:17:57.845Z,10.64
2023-04-04T14:18:59.203Z,10.66
2023-04-04T14:20:00.803Z,11.21
2023-04-04T14:21:03.120Z,12.21
2023-04-04T14:22:05.203Z,13.07
2023-04-04T14:23:06.892Z,13.63
2023-04-04T14:24:08.318Z,14.06
2023-04-04T14:25:09.992Z,13.88
2023-04-04T14:26:11.703Z,13.87
2023-04-04T14:27:13.218Z,14.46
2023-04-04T14:28:14.619Z,14.76
2023-04-04T14:29:16.577Z,13.76
2023-04-04T14:30:17.936Z,14.16
2023-04-04T14:31:19.854Z,14.09
2023-04-04T14:32:21.240Z,14.48
2023-04-04T14:33:22.660Z,14.59
2023-04-04T14:34:26.623Z,15.10
2023-04-04T14:35:28.052Z,15.56
2023-04-04T14:36:30.107Z,15.94
2023-04-04T14:37:31.542Z,15.70
2023-04-04T14:38:33.024Z,15.59
2023-04-04T14:39:34.429Z,15.57
2023-04-04T14:40:36.432Z,15.62
2023-04-04T14:41:37.887Z,15.09
2023-04-04T14:42:39.427Z,15.23
2023-04-04T14:43:41.077Z,15.58
2023-04-04T14:44:42.832Z,14.46
2023-04-04T14:45:44.182Z,15.31
2023-04-04T14:46:45.605Z,15.89
2023-04-04T14:47:47.322Z,15.94
2023-04-04T14:48:48.715Z,15.50
2023-04-04T14:49:50.100Z,15.47
2023-04-04T14:50:52.118Z,15.68
2023-04-04T14:51:53.476Z,14.53
2023-04-04T14:52:56.471Z,15.21
2023-04-04T14:53:58.334Z,15.56
2023-04-04T14:54:59.748Z,15.75
2023-04-04T14:56:01.190Z,15.56
2023-04-04T14:57:03.369Z,15.41
2023-04-04T14:58:04.746Z,15.83
2023-04-04T14:59:06.915Z,15.51
2023-04-04T15:00:09.024Z,13.95
2023-04-04T15:01:11.350Z,14.63
2023-04-04T15:02:12.916Z,15.14
2023-04-04T15:03:14.351Z,15.60
2023-04-04T15:04:16.174Z,15.71
2023-04-04T15:05:18.415Z,15.69
2023-04-04T15:06:21.486Z,15.96
2023-04-04T15:07:24.294Z,14.16
2023-04-04T15:08:25.636Z,14.32
2023-04-04T15:09:26.997Z,14.08
2023-04-04T15:10:28.441Z,15.23
2023-04-04T15:11:29.854Z,14.58
2023-04-04T15:12:31.221Z,14.74
2023-04-04T15:13:33.642Z,15.27
2023-04-04T15:14:35.057Z,14.94
2023-04-04T15:15:36.433Z,14.37
2023-04-04T15:16:38.318Z,14.00
2023-04-04T15:17:40.616Z,13.10
2023-04-04T15:18:42.031Z,13.59
2023-04-04T15:19:43.408Z,14.38
2023-04-04T15:20:44.986Z,14.16
2023-04-04T15:21:48.026Z,14.52
2023-04-04T15:22:49.408Z,14.41
2023-04-04T15:23:50.847Z,14.44
2023-04-04T15:24:52.214Z,14.68
2023-04-04T15:25:53.549Z,14.86
2023-04-04T15:26:56.446Z,14.84
2023-04-04T15:27:58.876Z,15.18
2023-04-04T15:29:00.289Z,15.56
2023-04-04T15:30:01.979Z,15.51
2023-04-04T15:31:03.466Z,15.08
2023-04-04T15:32:04.969Z,15.40
2023-04-04T15:33:06.540Z,15.94
2023-04-04T15:34:09.422Z,15.30
2023-04-04T15:35:16.901Z,15.88
2023-04-04T15:36:18.384Z,16.36
2023-04-04T15:37:20.111Z,16.20
2023-04-04T15:38:22.463Z,14.79
2023-04-04T15:39:24.102Z,15.25
2023-04-04T15:40:25.690Z,15.30
2023-04-04T15:41:27.353Z,15.13
2023-04-04T15:42:29.234Z,15.00
2023-04-04T15:43:31.866Z,14.88
2023-04-04T15:44:33.384Z,15.08
2023-04-04T15:45:34.737Z,15.00
2023-04-04T15:46:36.496Z,14.56
2023-04-04T15:47:37.925Z,14.43
2023-04-04T15:48:39.341Z,14.54
2023-04-04T15:49:40.707Z,14.14
2023-04-04T15:50:42.402Z,13.52
2023-04-04T15:51:45.024Z,13.12
2023-04-04T15:52:46.435Z,12.71
2023-04-04T15:53:47.992Z,10.75
2023-04-04T15:54:49.386Z,11.59
2023-04-04T15:55:50.898Z,12.02
2023-04-04T15:56:52.220Z,12.50
2023-04-04T15:57:53.599Z,13.07
2023-04-04T15:58:55.820Z,13.16
2023-04-04T15:59:57.240Z,13.47
2023-04-04T16:00:58.742Z,13.51
2023-04-04T16:02:00.407Z,13.69
2023-04-04T16:03:02.076Z,13.80
2023-04-04T16:04:03.818Z,13.83
2023-04-04T16:05:06.038Z,13.94
2023-04-04T16:06:12.747Z,13.69
2023-04-04T16:07:14.096Z,13.62
2023-04-04T16:08:15.806Z,13.46
2023-04-04T16:09:17.143Z,13.70
2023-04-04T16:10:18.557Z,13.86
2023-04-04T16:11:19.999Z,14.01
2023-04-04T16:12:21.548Z,13.87
2023-04-04T16:13:23.078Z,14.08
2023-04-04T16:14:24.874Z,14.08
2023-04-04T16:15:26.297Z,13.46
2023-04-04T16:16:27.734Z,14.03
2023-04-04T16:17:30.365Z,13.68
2023-04-04T16:18:33.444Z,13.84
2023-04-04T16:19:34.861Z,13.99
2023-04-04T16:20:36.616Z,13.75
2023-04-04T16:21:38.057Z,13.61
2023-04-04T16:22:39.472Z,12.84
2023-04-04T16:23:40.999Z,13.15
2023-04-04T16:24:42.480Z,13.43
2023-04-04T16:25:44.150Z,13.73
2023-04-04T16:26:48.744Z,13.48
2023-04-04T16:27:50.130Z,13.23
2023-04-04T16:28:51.609Z,13.00
2023-04-04T16:29:53.012Z,12.93
2023-04-04T16:30:54.474Z,12.78
2023-04-04T16:31:56.079Z,12.82
2023-04-04T16:32:57.787Z,12.55
2023-04-04T16:33:59.373Z,12.58
2023-04-04T16:35:00.981Z,12.44
2023-04-04T16:36:02.309Z,12.66
2023-04-04T16:37:03.701Z,12.23
2023-04-04T16:38:06.223Z,11.90
2023-04-04T16:39:07.840Z,11.51
2023-04-04T16:40:09.679Z,10.94
2023-04-04T16:41:11.585Z,10.81
2023-04-04T16:42:13.133Z,10.81
2023-04-04T16:43:14.541Z,10.89
2023-04-04T16:44:15.985Z,10.76
2023-04-04T16:45:17.433Z,10.79
2023-04-04T16:46:19.398Z,10.47
2023-04-04T16:47:20.858Z,10.25
2023-04-04T16:48:22.263Z,10.29
2023-04-04T16:49:23.749Z,10.08
2023-04-04T16:50:25.717Z,10.00
2023-04-04T16:51:28.653Z,9.61
2023-04-04T16:52:30.743Z,9.64
2023-04-04T16:53:32.172Z,9.71
2023-04-04T16:54:33.585Z,9.60
2023-04-04T16:55:35.257Z,9.62
2023-04-04T16:56:36.753Z,9.54
2023-04-04T16:57:38.136Z,9.05
2023-04-04T16:58:39.905Z,8.97
2023-04-04T16:59:41.356Z,9.04
2023-04-04T17:00:43.238Z,8.73
2023-04-04T17:01:45.184Z,8.47
2023-04-04T17:02:46.601Z,8.45
2023-04-04T17:03:48.962Z,8.44
2023-04-04T17:04:51.231Z,8.19
